sensor_id;sensor_type;location;lat;lon;timestamp;pressure;altitude;pressure_sealevel;temperature;humidity
29879;BME280;16752;53.364;-1.488;2024-02-26T00:01:12;99321.97;;;14.75;39.88
29879;BME280;16752;53.364;-1.488;2024-02-26T00:03:56;99333.19;;;14.59;40.10
29879;BME280;16752;53.364;-1.488;2024-02-26T00:06:43;99333.56;;;14.47;40.33
29879;BME280;16752;53.364;-1.488;2024-02-26T00:09:27;99333.22;;;14.14;40.68
29879;BME280;16752;53.364;-1.488;2024-02-26T00:12:11;99341.47;;;13.47;41.91
29879;BME280;16752;53.364;-1.488;2024-02-26T00:14:55;99346.59;;;13.75;41.38
29879;BME280;16752;53.364;-1.488;2024-02-26T00:17:41;99347.91;;;14.17;40.47
29879;BME280;16752;53.364;-1.488;2024-02-26T00:20:25;99350.13;;;13.66;41.50
29879;BME280;16752;53.364;-1.488;2024-02-26T00:23:10;99360.53;;;14.31;40.39
29879;BME280;16752;53.364;-1.488;2024-02-26T00:25:54;99353.25;;;14.25;40.50
29879;BME280;16752;53.364;-1.488;2024-02-26T00:28:37;99364.94;;;14.40;40.48
29879;BME280;16752;53.364;-1.488;2024-02-26T00:31:21;99369.78;;;14.45;40.27
29879;BME280;16752;53.364;-1.488;2024-02-26T00:34:05;99365.81;;;14.13;40.92
29879;BME280;16752;53.364;-1.488;2024-02-26T00:36:50;99379.09;;;14.39;40.32
29879;BME280;16752;53.364;-1.488;2024-02-26T00:39:33;99378.88;;;14.50;40.12
29879;BME280;16752;53.364;-1.488;2024-02-26T00:42:17;99379.81;;;14.77;39.59
29879;BME280;16752;53.364;-1.488;2024-02-26T00:45:01;99384.84;;;14.88;39.45
29879;BME280;16752;53.364;-1.488;2024-02-26T00:47:46;99383.97;;;14.06;40.74
29879;BME280;16752;53.364;-1.488;2024-02-26T00:50:31;99380.84;;;14.21;40.63
29879;BME280;16752;53.364;-1.488;2024-02-26T00:53:15;99390.81;;;13.99;40.40
29879;BME280;16752;53.364;-1.488;2024-02-26T00:55:59;99395.59;;;14.14;40.54
29879;BME280;16752;53.364;-1.488;2024-02-26T00:58:43;99395.88;;;14.38;39.88
29879;BME280;16752;53.364;-1.488;2024-02-26T01:01:27;99402.91;;;14.47;39.63
29879;BME280;16752;53.364;-1.488;2024-02-26T01:04:10;99408.38;;;14.08;40.53
29879;BME280;16752;53.364;-1.488;2024-02-26T01:06:55;99421.91;;;13.86;40.96
29879;BME280;16752;53.364;-1.488;2024-02-26T01:09:39;99411.44;;;14.04;40.55
29879;BME280;16752;53.364;-1.488;2024-02-26T01:12:22;99422.38;;;13.25;42.05
29879;BME280;16752;53.364;-1.488;2024-02-26T01:15:07;99438.03;;;14.11;40.51
29879;BME280;16752;53.364;-1.488;2024-02-26T01:17:51;99437.91;;;14.02;40.62
29879;BME280;16752;53.364;-1.488;2024-02-26T01:20:35;99442.75;;;14.07;40.94
29879;BME280;16752;53.364;-1.488;2024-02-26T01:23:20;99444.63;;;14.24;40.42
29879;BME280;16752;53.364;-1.488;2024-02-26T01:26:04;99453.19;;;14.26;40.12
29879;BME280;16752;53.364;-1.488;2024-02-26T01:28:48;99452.06;;;14.01;40.73
29879;BME280;16752;53.364;-1.488;2024-02-26T01:31:32;99458.38;;;13.25;42.08
29879;BME280;16752;53.364;-1.488;2024-02-26T01:34:16;99465.28;;;13.82;41.62
29879;BME280;16752;53.364;-1.488;2024-02-26T01:37:02;99471.19;;;14.03;40.54
29879;BME280;16752;53.364;-1.488;2024-02-26T01:39:45;99479.44;;;14.18;40.54
29879;BME280;16752;53.364;-1.488;2024-02-26T01:42:30;99476.38;;;13.86;41.18
29879;BME280;16752;53.364;-1.488;2024-02-26T01:45:16;99480.06;;;14.30;40.74
29879;BME280;16752;53.364;-1.488;2024-02-26T01:48:05;99475.44;;;14.14;40.55
29879;BME280;16752;53.364;-1.488;2024-02-26T01:50:49;99491.56;;;14.01;40.92
29879;BME280;16752;53.364;-1.488;2024-02-26T01:53:33;99488.31;;;14.17;40.49
29879;BME280;16752;53.364;-1.488;2024-02-26T01:56:17;99498.97;;;13.88;40.98
29879;BME280;16752;53.364;-1.488;2024-02-26T01:59:02;99498.25;;;13.96;40.93
29879;BME280;16752;53.364;-1.488;2024-02-26T02:01:48;99511.56;;;13.85;41.52
29879;BME280;16752;53.364;-1.488;2024-02-26T02:04:35;99511.56;;;13.85;41.05
29879;BME280;16752;53.364;-1.488;2024-02-26T02:07:19;99512.13;;;13.88;40.88
29879;BME280;16752;53.364;-1.488;2024-02-26T02:10:05;99515.72;;;13.87;40.92
29879;BME280;16752;53.364;-1.488;2024-02-26T02:12:49;99521.56;;;13.91;40.74
29879;BME280;16752;53.364;-1.488;2024-02-26T02:15:34;99519.81;;;13.53;41.59
29879;BME280;16752;53.364;-1.488;2024-02-26T02:18:19;99522.66;;;13.88;40.83
29879;BME280;16752;53.364;-1.488;2024-02-26T02:21:03;99527.13;;;13.68;41.10
29879;BME280;16752;53.364;-1.488;2024-02-26T02:23:47;99538.28;;;13.99;40.52
29879;BME280;16752;53.364;-1.488;2024-02-26T02:26:32;99541.13;;;13.59;41.44
29879;BME280;16752;53.364;-1.488;2024-02-26T02:29:16;99534.31;;;13.76;40.90
29879;BME280;16752;53.364;-1.488;2024-02-26T02:32:01;99541.81;;;13.71;40.78
29879;BME280;16752;53.364;-1.488;2024-02-26T02:34:45;99551.63;;;13.88;40.70
29879;BME280;16752;53.364;-1.488;2024-02-26T02:37:30;99547.06;;;13.61;41.11
29879;BME280;16752;53.364;-1.488;2024-02-26T02:40:14;99562.03;;;12.72;43.48
29879;BME280;16752;53.364;-1.488;2024-02-26T02:42:57;99565.03;;;13.95;40.88
29879;BME280;16752;53.364;-1.488;2024-02-26T02:45:42;99563.03;;;13.50;41.29
29879;BME280;16752;53.364;-1.488;2024-02-26T02:48:26;99580.44;;;13.61;41.10
29879;BME280;16752;53.364;-1.488;2024-02-26T02:51:10;99578.91;;;13.97;40.23
29879;BME280;16752;53.364;-1.488;2024-02-26T02:53:54;99583.31;;;14.06;40.14
29879;BME280;16752;53.364;-1.488;2024-02-26T02:56:38;99588.47;;;13.98;39.98
29879;BME280;16752;53.364;-1.488;2024-02-26T02:59:22;99592.63;;;13.62;40.71
29879;BME280;16752;53.364;-1.488;2024-02-26T03:02:06;99595.28;;;13.71;40.95
29879;BME280;16752;53.364;-1.488;2024-02-26T03:04:50;99604.13;;;13.80;40.36
29879;BME280;16752;53.364;-1.488;2024-02-26T03:07:34;99609.25;;;13.43;41.21
29879;BME280;16752;53.364;-1.488;2024-02-26T03:10:18;99613.38;;;12.76;41.82
29879;BME280;16752;53.364;-1.488;2024-02-26T03:13:02;99614.81;;;13.69;40.41
29879;BME280;16752;53.364;-1.488;2024-02-26T03:15:46;99620.66;;;13.03;41.82
29879;BME280;16752;53.364;-1.488;2024-02-26T03:18:30;99627.53;;;13.64;40.32
29879;BME280;16752;53.364;-1.488;2024-02-26T03:21:14;99638.06;;;13.25;41.72
29879;BME280;16752;53.364;-1.488;2024-02-26T03:23:58;99635.22;;;13.17;41.43
29879;BME280;16752;53.364;-1.488;2024-02-26T03:26:42;99639.91;;;13.73;40.34
29879;BME280;16752;53.364;-1.488;2024-02-26T03:29:28;99642.72;;;13.22;41.36
29879;BME280;16752;53.364;-1.488;2024-02-26T03:32:12;99641.94;;;13.31;41.44
29879;BME280;16752;53.364;-1.488;2024-02-26T03:34:56;99642.63;;;13.42;41.19
29879;BME280;16752;53.364;-1.488;2024-02-26T03:37:41;99645.59;;;13.09;41.71
29879;BME280;16752;53.364;-1.488;2024-02-26T03:40:25;99652.19;;;13.63;40.64
29879;BME280;16752;53.364;-1.488;2024-02-26T03:43:09;99646.41;;;13.09;41.45
29879;BME280;16752;53.364;-1.488;2024-02-26T03:45:53;99667.44;;;13.09;41.74
29879;BME280;16752;53.364;-1.488;2024-02-26T03:48:37;99664.41;;;12.74;42.48
29879;BME280;16752;53.364;-1.488;2024-02-26T03:51:20;99668.03;;;12.52;42.75
29879;BME280;16752;53.364;-1.488;2024-02-26T03:54:04;99675.75;;;13.05;41.87
29879;BME280;16752;53.364;-1.488;2024-02-26T03:56:48;99681.94;;;13.34;41.17
29879;BME280;16752;53.364;-1.488;2024-02-26T03:59:32;99688.44;;;13.00;41.95
29879;BME280;16752;53.364;-1.488;2024-02-26T04:02:16;99683.00;;;13.22;41.30
29879;BME280;16752;53.364;-1.488;2024-02-26T04:05:00;99696.41;;;13.69;40.61
29879;BME280;16752;53.364;-1.488;2024-02-26T04:07:44;99705.25;;;13.49;41.10
29879;BME280;16752;53.364;-1.488;2024-02-26T04:10:28;99704.50;;;13.37;41.40
29879;BME280;16752;53.364;-1.488;2024-02-26T04:13:12;99713.03;;;13.79;40.49
29879;BME280;16752;53.364;-1.488;2024-02-26T04:15:56;99723.50;;;13.40;41.65
29879;BME280;16752;53.364;-1.488;2024-02-26T04:18:42;99719.72;;;13.24;41.49
29879;BME280;16752;53.364;-1.488;2024-02-26T04:21:25;99733.72;;;13.34;41.39
29879;BME280;16752;53.364;-1.488;2024-02-26T04:24:09;99732.91;;;13.33;41.40
29879;BME280;16752;53.364;-1.488;2024-02-26T04:26:53;99742.44;;;13.34;41.62
29879;BME280;16752;53.364;-1.488;2024-02-26T04:29:37;99745.22;;;13.42;41.39
29879;BME280;16752;53.364;-1.488;2024-02-26T04:32:21;99757.63;;;13.61;40.71
29879;BME280;16752;53.364;-1.488;2024-02-26T04:35:05;99767.59;;;13.58;41.08
29879;BME280;16752;53.364;-1.488;2024-02-26T04:37:49;99766.94;;;13.25;41.58
29879;BME280;16752;53.364;-1.488;2024-02-26T04:40:33;99766.34;;;13.01;41.96
29879;BME280;16752;53.364;-1.488;2024-02-26T04:43:17;99774.16;;;13.42;41.21
29879;BME280;16752;53.364;-1.488;2024-02-26T04:46:02;99771.72;;;13.51;41.18
29879;BME280;16752;53.364;-1.488;2024-02-26T04:48:46;99772.34;;;13.03;42.04
29879;BME280;16752;53.364;-1.488;2024-02-26T04:51:30;99788.34;;;13.00;42.47
29879;BME280;16752;53.364;-1.488;2024-02-26T04:54:14;99787.66;;;12.98;42.52
29879;BME280;16752;53.364;-1.488;2024-02-26T04:56:58;99796.66;;;13.47;41.52
29879;BME280;16752;53.364;-1.488;2024-02-26T04:59:42;99803.03;;;13.54;41.22
29879;BME280;16752;53.364;-1.488;2024-02-26T05:02:26;99811.09;;;13.62;40.86
29879;BME280;16752;53.364;-1.488;2024-02-26T05:05:10;99813.63;;;13.12;42.28
29879;BME280;16752;53.364;-1.488;2024-02-26T05:07:56;99820.53;;;13.13;42.32
29879;BME280;16752;53.364;-1.488;2024-02-26T05:10:40;99818.44;;;13.28;41.91
29879;BME280;16752;53.364;-1.488;2024-02-26T05:13:25;99834.75;;;13.52;41.79
29879;BME280;16752;53.364;-1.488;2024-02-26T05:16:09;99840.97;;;13.51;42.09
29879;BME280;16752;53.364;-1.488;2024-02-26T05:18:53;99846.81;;;13.55;41.79
29879;BME280;16752;53.364;-1.488;2024-02-26T05:21:37;99853.88;;;14.04;40.72
29879;BME280;16752;53.364;-1.488;2024-02-26T05:24:21;99859.78;;;13.87;40.91
29879;BME280;16752;53.364;-1.488;2024-02-26T05:27:06;99860.22;;;13.52;41.65
29879;BME280;16752;53.364;-1.488;2024-02-26T05:29:50;99865.78;;;13.98;40.67
29879;BME280;16752;53.364;-1.488;2024-02-26T05:32:35;99884.59;;;14.34;39.90
29879;BME280;16752;53.364;-1.488;2024-02-26T05:35:19;99879.66;;;14.00;40.24
29879;BME280;16752;53.364;-1.488;2024-02-26T05:38:03;99899.81;;;14.21;39.81
29879;BME280;16752;53.364;-1.488;2024-02-26T05:40:47;99891.97;;;13.60;40.80
29879;BME280;16752;53.364;-1.488;2024-02-26T05:43:31;99899.88;;;13.90;40.34
29879;BME280;16752;53.364;-1.488;2024-02-26T05:46:18;99899.06;;;14.09;40.02
29879;BME280;16752;53.364;-1.488;2024-02-26T05:49:02;99915.75;;;14.29;39.90
29879;BME280;16752;53.364;-1.488;2024-02-26T05:51:46;99917.91;;;14.04;40.73
29879;BME280;16752;53.364;-1.488;2024-02-26T05:54:30;99920.97;;;14.10;40.34
29879;BME280;16752;53.364;-1.488;2024-02-26T05:57:14;99926.78;;;14.03;40.52
29879;BME280;16752;53.364;-1.488;2024-02-26T05:59:58;99925.41;;;13.99;40.22
29879;BME280;16752;53.364;-1.488;2024-02-26T06:02:46;99936.13;;;13.77;41.15
29879;BME280;16752;53.364;-1.488;2024-02-26T06:05:30;99936.28;;;13.55;41.69
29879;BME280;16752;53.364;-1.488;2024-02-26T06:08:14;99945.41;;;13.30;42.47
29879;BME280;16752;53.364;-1.488;2024-02-26T06:10:59;99947.31;;;14.00;40.75
29879;BME280;16752;53.364;-1.488;2024-02-26T06:13:42;99950.59;;;13.92;40.88
29879;BME280;16752;53.364;-1.488;2024-02-26T06:16:26;99953.44;;;13.49;41.42
29879;BME280;16752;53.364;-1.488;2024-02-26T06:19:11;99954.38;;;13.69;41.15
29879;BME280;16752;53.364;-1.488;2024-02-26T06:21:55;99964.56;;;14.14;40.41
29879;BME280;16752;53.364;-1.488;2024-02-26T06:24:39;99967.56;;;14.09;40.42
29879;BME280;16752;53.364;-1.488;2024-02-26T06:27:23;99961.06;;;13.83;41.14
29879;BME280;16752;53.364;-1.488;2024-02-26T06:30:07;99977.28;;;13.57;41.81
29879;BME280;16752;53.364;-1.488;2024-02-26T06:32:52;99972.34;;;13.64;41.65
29879;BME280;16752;53.364;-1.488;2024-02-26T06:35:37;99976.91;;;14.23;40.30
29879;BME280;16752;53.364;-1.488;2024-02-26T06:38:21;99980.84;;;13.98;40.70
29879;BME280;16752;53.364;-1.488;2024-02-26T06:41:05;99994.69;;;14.00;40.87
29879;BME280;16752;53.364;-1.488;2024-02-26T06:43:49;99992.06;;;14.00;41.10
29879;BME280;16752;53.364;-1.488;2024-02-26T06:46:32;99997.91;;;14.34;40.19
29879;BME280;16752;53.364;-1.488;2024-02-26T06:49:16;100005.44;;;14.48;39.95
29879;BME280;16752;53.364;-1.488;2024-02-26T06:52:00;100008.63;;;14.12;40.86
29879;BME280;16752;53.364;-1.488;2024-02-26T06:54:44;100007.53;;;14.14;41.24
29879;BME280;16752;53.364;-1.488;2024-02-26T06:57:29;100019.34;;;14.29;41.09
29879;BME280;16752;53.364;-1.488;2024-02-26T07:00:13;100026.34;;;14.10;41.69
29879;BME280;16752;53.364;-1.488;2024-02-26T07:03:00;100029.16;;;14.18;41.65
29879;BME280;16752;53.364;-1.488;2024-02-26T07:05:44;100032.09;;;13.94;42.19
29879;BME280;16752;53.364;-1.488;2024-02-26T07:08:30;100035.38;;;13.86;42.52
29879;BME280;16752;53.364;-1.488;2024-02-26T07:11:14;100039.56;;;14.50;41.26
29879;BME280;16752;53.364;-1.488;2024-02-26T07:13:57;100043.41;;;14.36;41.55
29879;BME280;16752;53.364;-1.488;2024-02-26T07:16:41;100040.16;;;14.53;40.97
29879;BME280;16752;53.364;-1.488;2024-02-26T07:19:25;100047.41;;;14.61;40.66
29879;BME280;16752;53.364;-1.488;2024-02-26T07:22:09;100054.63;;;14.68;40.39
29879;BME280;16752;53.364;-1.488;2024-02-26T07:24:53;100058.03;;;14.29;41.38
29879;BME280;16752;53.364;-1.488;2024-02-26T07:27:37;100063.44;;;14.48;41.13
29879;BME280;16752;53.364;-1.488;2024-02-26T07:30:21;100059.22;;;14.36;41.32
29879;BME280;16752;53.364;-1.488;2024-02-26T07:33:05;100070.09;;;14.52;41.29
29879;BME280;16752;53.364;-1.488;2024-02-26T07:35:49;100076.81;;;14.56;41.10
29879;BME280;16752;53.364;-1.488;2024-02-26T07:38:33;100084.38;;;14.50;41.09
29879;BME280;16752;53.364;-1.488;2024-02-26T07:41:17;100085.13;;;15.11;39.96
29879;BME280;16752;53.364;-1.488;2024-02-26T07:44:01;100096.13;;;14.66;40.83
29879;BME280;16752;53.364;-1.488;2024-02-26T07:46:45;100099.22;;;14.91;40.70
29879;BME280;16752;53.364;-1.488;2024-02-26T07:49:29;100109.84;;;15.01;40.49
29879;BME280;16752;53.364;-1.488;2024-02-26T07:52:13;100115.38;;;14.57;41.45
29879;BME280;16752;53.364;-1.488;2024-02-26T07:54:57;100117.19;;;14.97;40.88
29879;BME280;16752;53.364;-1.488;2024-02-26T07:57:41;100125.94;;;15.07;40.61
29879;BME280;16752;53.364;-1.488;2024-02-26T08:00:26;100131.22;;;15.07;40.94
29879;BME280;16752;53.364;-1.488;2024-02-26T08:03:10;100132.53;;;14.52;42.29
29879;BME280;16752;53.364;-1.488;2024-02-26T08:05:54;100131.97;;;14.79;41.99
29879;BME280;16752;53.364;-1.488;2024-02-26T08:08:38;100141.53;;;15.29;40.59
29879;BME280;16752;53.364;-1.488;2024-02-26T08:11:22;100143.22;;;14.81;41.17
29879;BME280;16752;53.364;-1.488;2024-02-26T08:14:06;100142.03;;;15.04;41.20
29879;BME280;16752;53.364;-1.488;2024-02-26T08:16:50;100146.78;;;14.70;41.98
29879;BME280;16752;53.364;-1.488;2024-02-26T08:19:34;100140.09;;;14.66;41.57
29879;BME280;16752;53.364;-1.488;2024-02-26T08:22:19;100158.59;;;15.16;40.90
29879;BME280;16752;53.364;-1.488;2024-02-26T08:25:03;100163.50;;;15.40;39.97
29879;BME280;16752;53.364;-1.488;2024-02-26T08:27:50;100171.44;;;15.49;39.68
29879;BME280;16752;53.364;-1.488;2024-02-26T08:30:34;100173.28;;;14.99;40.22
29879;BME280;16752;53.364;-1.488;2024-02-26T08:33:18;100178.84;;;15.06;40.96
29879;BME280;16752;53.364;-1.488;2024-02-26T08:36:05;100180.84;;;15.33;39.89
29879;BME280;16752;53.364;-1.488;2024-02-26T08:38:49;100190.41;;;15.64;39.09
29879;BME280;16752;53.364;-1.488;2024-02-26T08:41:34;100183.34;;;15.24;40.12
29879;BME280;16752;53.364;-1.488;2024-02-26T08:44:18;100188.47;;;14.86;40.86
29879;BME280;16752;53.364;-1.488;2024-02-26T08:47:02;100187.75;;;15.14;40.14
29879;BME280;16752;53.364;-1.488;2024-02-26T08:49:46;100196.41;;;15.36;40.13
29879;BME280;16752;53.364;-1.488;2024-02-26T08:52:30;100197.09;;;15.38;40.40
29879;BME280;16752;53.364;-1.488;2024-02-26T08:55:14;100201.47;;;14.47;41.73
29879;BME280;16752;53.364;-1.488;2024-02-26T08:57:58;100208.72;;;14.76;41.44
29879;BME280;16752;53.364;-1.488;2024-02-26T09:00:42;100208.66;;;14.66;41.74
29879;BME280;16752;53.364;-1.488;2024-02-26T09:03:26;100212.78;;;15.20;40.21
29879;BME280;16752;53.364;-1.488;2024-02-26T09:06:09;100229.88;;;14.95;41.11
29879;BME280;16752;53.364;-1.488;2024-02-26T09:08:55;100235.88;;;15.37;39.98
29879;BME280;16752;53.364;-1.488;2024-02-26T09:11:40;100228.28;;;15.53;39.65
29879;BME280;16752;53.364;-1.488;2024-02-26T09:14:23;100233.69;;;15.02;40.52
29879;BME280;16752;53.364;-1.488;2024-02-26T09:17:08;100239.19;;;15.70;39.41
29879;BME280;16752;53.364;-1.488;2024-02-26T09:19:51;100243.81;;;16.16;38.69
29879;BME280;16752;53.364;-1.488;2024-02-26T09:22:35;100256.88;;;16.17;39.07
29879;BME280;16752;53.364;-1.488;2024-02-26T09:25:21;100257.16;;;16.05;39.01
29879;BME280;16752;53.364;-1.488;2024-02-26T09:28:05;100251.59;;;16.08;39.77
29879;BME280;16752;53.364;-1.488;2024-02-26T09:30:49;100255.78;;;16.10;39.32
29879;BME280;16752;53.364;-1.488;2024-02-26T09:33:35;100259.09;;;16.22;39.23
29879;BME280;16752;53.364;-1.488;2024-02-26T09:36:19;100260.34;;;15.99;39.60
29879;BME280;16752;53.364;-1.488;2024-02-26T09:39:03;100266.03;;;16.62;38.04
29879;BME280;16752;53.364;-1.488;2024-02-26T09:41:47;100282.47;;;16.56;38.07
29879;BME280;16752;53.364;-1.488;2024-02-26T09:44:32;100289.44;;;16.57;38.51
29879;BME280;16752;53.364;-1.488;2024-02-26T09:47:20;100278.03;;;16.37;39.14
29879;BME280;16752;53.364;-1.488;2024-02-26T09:50:06;100293.19;;;16.73;38.42
29879;BME280;16752;53.364;-1.488;2024-02-26T09:52:52;100286.50;;;16.21;38.62
29879;BME280;16752;53.364;-1.488;2024-02-26T09:55:37;100295.84;;;16.54;38.04
29879;BME280;16752;53.364;-1.488;2024-02-26T09:58:21;100295.44;;;16.49;38.86
29879;BME280;16752;53.364;-1.488;2024-02-26T10:01:07;100303.34;;;16.78;37.97
29879;BME280;16752;53.364;-1.488;2024-02-26T10:03:57;100300.53;;;16.99;36.97
29879;BME280;16752;53.364;-1.488;2024-02-26T10:06:41;100307.78;;;17.34;36.53
29879;BME280;16752;53.364;-1.488;2024-02-26T10:09:28;100305.28;;;16.86;37.32
29879;BME280;16752;53.364;-1.488;2024-02-26T10:12:11;100304.88;;;16.32;38.36
29879;BME280;16752;53.364;-1.488;2024-02-26T10:14:56;100314.19;;;16.46;37.36
29879;BME280;16752;53.364;-1.488;2024-02-26T10:17:40;100317.09;;;16.91;36.78
29879;BME280;16752;53.364;-1.488;2024-02-26T10:20:24;100318.09;;;16.32;38.40
29879;BME280;16752;53.364;-1.488;2024-02-26T10:23:09;100315.66;;;17.16;36.10
29879;BME280;16752;53.364;-1.488;2024-02-26T10:25:54;100319.78;;;17.65;36.83
29879;BME280;16752;53.364;-1.488;2024-02-26T10:28:39;100318.66;;;17.31;36.32
29879;BME280;16752;53.364;-1.488;2024-02-26T10:31:24;100324.72;;;17.14;37.15
29879;BME280;16752;53.364;-1.488;2024-02-26T10:34:08;100322.97;;;17.32;35.97
29879;BME280;16752;53.364;-1.488;2024-02-26T10:36:52;100324.69;;;17.23;35.20
29879;BME280;16752;53.364;-1.488;2024-02-26T10:39:36;100317.53;;;16.38;37.44
29879;BME280;16752;53.364;-1.488;2024-02-26T10:42:20;100336.75;;;16.40;36.94
29879;BME280;16752;53.364;-1.488;2024-02-26T10:45:04;100330.88;;;17.04;36.59
29879;BME280;16752;53.364;-1.488;2024-02-26T10:47:50;100345.28;;;17.66;35.20
29879;BME280;16752;53.364;-1.488;2024-02-26T10:50:34;100347.94;;;17.94;35.86
29879;BME280;16752;53.364;-1.488;2024-02-26T10:53:21;100350.72;;;18.02;35.58
29879;BME280;16752;53.364;-1.488;2024-02-26T10:56:06;100352.66;;;17.73;35.57
29879;BME280;16752;53.364;-1.488;2024-02-26T10:58:51;100362.09;;;17.48;35.59
29879;BME280;16752;53.364;-1.488;2024-02-26T11:01:36;100364.84;;;17.09;35.62
29879;BME280;16752;53.364;-1.488;2024-02-26T11:04:22;100363.19;;;16.98;36.49
29879;BME280;16752;53.364;-1.488;2024-02-26T11:07:07;100364.59;;;17.49;36.19
29879;BME280;16752;53.364;-1.488;2024-02-26T11:09:53;100369.00;;;17.68;35.96
29879;BME280;16752;53.364;-1.488;2024-02-26T11:12:39;100375.88;;;17.88;34.73
29879;BME280;16752;53.364;-1.488;2024-02-26T11:15:23;100372.09;;;17.91;35.83
29879;BME280;16752;53.364;-1.488;2024-02-26T11:18:08;100379.03;;;18.01;35.12
29879;BME280;16752;53.364;-1.488;2024-02-26T11:20:54;100375.69;;;17.72;35.31
29879;BME280;16752;53.364;-1.488;2024-02-26T11:23:40;100382.78;;;17.99;34.10
29879;BME280;16752;53.364;-1.488;2024-02-26T11:26:24;100386.50;;;17.32;35.74
29879;BME280;16752;53.364;-1.488;2024-02-26T11:29:11;100387.50;;;17.31;34.95
29879;BME280;16752;53.364;-1.488;2024-02-26T11:31:58;100372.44;;;17.41;35.76
29879;BME280;16752;53.364;-1.488;2024-02-26T11:34:42;100392.00;;;18.05;35.76
29879;BME280;16752;53.364;-1.488;2024-02-26T11:37:27;100385.50;;;17.89;34.21
29879;BME280;16752;53.364;-1.488;2024-02-26T11:40:11;100382.97;;;18.78;33.95
29879;BME280;16752;53.364;-1.488;2024-02-26T11:42:56;100384.41;;;18.73;33.41
29879;BME280;16752;53.364;-1.488;2024-02-26T11:48:30;100393.28;;;18.81;33.22
29879;BME280;16752;53.364;-1.488;2024-02-26T11:51:13;100395.28;;;18.34;33.84
29879;BME280;16752;53.364;-1.488;2024-02-26T11:53:58;100385.59;;;18.43;33.02
29879;BME280;16752;53.364;-1.488;2024-02-26T11:56:42;100400.25;;;18.82;33.57
29879;BME280;16752;53.364;-1.488;2024-02-26T11:59:38;100398.22;;;19.20;32.60
29879;BME280;16752;53.364;-1.488;2024-02-26T12:05:22;100401.66;;;19.38;31.87
29879;BME280;16752;53.364;-1.488;2024-02-26T12:08:10;100405.75;;;19.07;32.18
29879;BME280;16752;53.364;-1.488;2024-02-26T12:10:56;100406.13;;;18.41;33.35
29879;BME280;16752;53.364;-1.488;2024-02-26T12:13:41;100405.13;;;18.69;33.12
29879;BME280;16752;53.364;-1.488;2024-02-26T12:16:36;100418.13;;;19.16;32.20
29879;BME280;16752;53.364;-1.488;2024-02-26T12:19:20;100412.69;;;18.19;34.40
29879;BME280;16752;53.364;-1.488;2024-02-26T12:22:06;100430.88;;;19.56;31.31
29879;BME280;16752;53.364;-1.488;2024-02-26T12:24:58;100435.16;;;19.83;31.38
29879;BME280;16752;53.364;-1.488;2024-02-26T12:27:41;100423.84;;;20.65;31.71
29879;BME280;16752;53.364;-1.488;2024-02-26T12:30:25;100423.22;;;21.28;30.30
29879;BME280;16752;53.364;-1.488;2024-02-26T12:33:10;100433.47;;;20.74;30.22
29879;BME280;16752;53.364;-1.488;2024-02-26T12:35:54;100427.88;;;19.33;31.58
29879;BME280;16752;53.364;-1.488;2024-02-26T12:38:38;100433.03;;;18.28;33.68
29879;BME280;16752;53.364;-1.488;2024-02-26T12:41:22;100440.59;;;18.41;34.01
29879;BME280;16752;53.364;-1.488;2024-02-26T12:44:07;100444.25;;;18.12;34.54
29879;BME280;16752;53.364;-1.488;2024-02-26T12:46:59;100446.22;;;18.38;33.17
29879;BME280;16752;53.364;-1.488;2024-02-26T12:49:43;100440.94;;;18.55;32.77
29879;BME280;16752;53.364;-1.488;2024-02-26T12:52:33;100451.88;;;19.49;31.46
29879;BME280;16752;53.364;-1.488;2024-02-26T12:55:18;100450.22;;;18.24;33.15
29879;BME280;16752;53.364;-1.488;2024-02-26T12:58:03;100450.72;;;19.26;31.75
29879;BME280;16752;53.364;-1.488;2024-02-26T13:00:48;100452.28;;;20.23;29.37
29879;BME280;16752;53.364;-1.488;2024-02-26T13:03:34;100456.69;;;20.40;29.06
29879;BME280;16752;53.364;-1.488;2024-02-26T13:06:19;100455.97;;;19.88;30.75
29879;BME280;16752;53.364;-1.488;2024-02-26T13:09:05;100471.28;;;19.68;30.55
29879;BME280;16752;53.364;-1.488;2024-02-26T13:11:56;100479.09;;;19.95;30.68
29879;BME280;16752;53.364;-1.488;2024-02-26T13:14:40;100485.72;;;19.21;31.10
29879;BME280;16752;53.364;-1.488;2024-02-26T13:17:24;100486.56;;;19.66;31.33
29879;BME280;16752;53.364;-1.488;2024-02-26T13:20:09;100498.25;;;19.11;31.06
29879;BME280;16752;53.364;-1.488;2024-02-26T13:23:02;100494.56;;;19.30;30.63
29879;BME280;16752;53.364;-1.488;2024-02-26T13:25:46;100497.44;;;20.06;30.66
29879;BME280;16752;53.364;-1.488;2024-02-26T13:28:30;100491.25;;;19.72;30.38
29879;BME280;16752;53.364;-1.488;2024-02-26T13:31:14;100495.06;;;20.80;28.76
29879;BME280;16752;53.364;-1.488;2024-02-26T13:33:58;100493.94;;;21.63;28.15
29879;BME280;16752;53.364;-1.488;2024-02-26T13:36:42;100500.34;;;22.57;26.28
29879;BME280;16752;53.364;-1.488;2024-02-26T13:39:27;100504.69;;;22.11;28.33
29879;BME280;16752;53.364;-1.488;2024-02-26T13:42:11;100490.78;;;21.19;27.29
29879;BME280;16752;53.364;-1.488;2024-02-26T13:44:55;100501.72;;;19.99;29.36
29879;BME280;16752;53.364;-1.488;2024-02-26T13:47:39;100513.41;;;19.19;30.95
29879;BME280;16752;53.364;-1.488;2024-02-26T13:50:24;100513.34;;;19.11;30.84
29879;BME280;16752;53.364;-1.488;2024-02-26T13:53:09;100515.75;;;19.04;31.87
29879;BME280;16752;53.364;-1.488;2024-02-26T13:55:52;100503.66;;;19.45;31.81
29879;BME280;16752;53.364;-1.488;2024-02-26T13:58:36;100512.72;;;20.04;30.52
29879;BME280;16752;53.364;-1.488;2024-02-26T14:01:21;100514.38;;;20.90;29.01
29879;BME280;16752;53.364;-1.488;2024-02-26T14:04:05;100517.88;;;19.36;31.35
29879;BME280;16752;53.364;-1.488;2024-02-26T14:06:49;100532.19;;;19.79;30.35
29879;BME280;16752;53.364;-1.488;2024-02-26T14:09:33;100529.38;;;19.80;29.86
29879;BME280;16752;53.364;-1.488;2024-02-26T14:12:16;100527.94;;;20.54;29.55
29879;BME280;16752;53.364;-1.488;2024-02-26T14:15:00;100528.44;;;21.41;28.11
29879;BME280;16752;53.364;-1.488;2024-02-26T14:17:48;100525.03;;;22.12;27.20
29879;BME280;16752;53.364;-1.488;2024-02-26T14:20:38;100522.47;;;20.22;30.03